Welkom op de weersite van Veghel e.o.

Veghelsweer wenst u.

Alle goeds voor 2020.

Hopend op weer een interessant weer jaar.


Webcam Veghel  Webcam Veghel


Onweer radar Meer informatie blitzortung!


Regen radar Meer informatie rain snow radar


U vindt ons ook hier:

Het Weer Aktueel

European Weather Network

Weather Underground

Benelux Weer Netwerk

AWEKAS


Het weer levert geen direct gevaar op.    Er zijn geen waarschuwingen afgegeven.

METAR rapporten vliegvelden

   
EHAM - Amsterdam
Gewijzigd: 24-01-2020 18:25
Grotendeels bewolkt  
Grotendeels bewolkt  
   Wind: ZZW 13 km/h
Wind: ZZW 13 km/h
Temperatuur: 4°C
Voelt als: 1°C
Dauwpunt: 3°C
Vochtigheid: 93%
Barometer: 1022 hPa
Bewolking: Mostly Cloudy
Zicht: 1 km
Bewolking: Grotendeels bewolkt 600 ft,
Grotendeels bewolkt 1700 ft
EHAM 241725Z 21007KT 0600 R18C/P2000N R27/P2000N R18R/P2000N R06/P2000N BKN006 BKN017 04/03 Q1022 BECMG 4500 BR
EHEH - Eindhoven
Gewijzigd: 24-01-2020 18:25
Nevel, Bewolking  
Nevel, Bewolking  
   Wind: Westen 5.6 km/h
Wind: Westen 5.6 km/h
Temperatuur: 2°C
Voelt als: 1°C
Dauwpunt: 1°C
Vochtigheid: 93%
Barometer: 1023 hPa
Bewolking: Overcast
Zicht: 5 km
Bewolking: Bewolking 400 ft
EHEH 241725Z AUTO 26003KT 220V320 4800 BR OVC004 02/01 Q1023 YLO VRB03KT 4000 BR OVC004
EHGR - Gilze/Rijen
Gewijzigd: 24-01-2020 18:25
Nevel, Bewolking  
Nevel, Bewolking  
   Wind: Zuiden 9.3 km/h
Wind: Zuiden 9.3 km/h
Temperatuur: 2°C
Voelt als: -1°C
Dauwpunt: 1°C
Vochtigheid: 93%
Barometer: 1022 hPa
Bewolking: Overcast
Zicht: 4 km
Bewolking: Bewolking 500 ft
EHGR 241725Z AUTO 18005KT 140V220 4300 BR OVC005 02/01 Q1022 YLO
EHBK - Maastricht
Gewijzigd: 24-01-2020 18:25
Bewolking  
Bewolking  
   Wind: varieert 3.7 km/h
Wind: varieert 3.7 km/h
Temperatuur: 0°C
Dauwpunt: -1°C
Vochtigheid: 93%
Barometer: 1022 hPa
Bewolking: Overcast
Zicht: 6 km
Bewolking: Grotendeels bewolkt 700 ft,
Bewolking 900 ft
EHBK 241725Z AUTO VRB02KT 6000 BKN007 OVC009 00/M01 Q1022 BECMG 4000 BR NSC
EHVK - Volkel
Gewijzigd: 24-01-2020 18:25
Nevel, Bewolking  
Nevel, Bewolking  
   Wind: Westen 7.4 km/h
Wind: Westen 7.4 km/h
Temperatuur: 2°C
Voelt als: 0°C
Dauwpunt: 1°C
Vochtigheid: 93%
Barometer: 1023 hPa
Bewolking: Overcast
Zicht: 6 km
Bewolking: Bewolking 500 ft
EHVK 241725Z AUTO 26004KT 190V310 6000 BR OVC005 02/01 Q1023 YLO
EHFS - Vlissingen
Gewijzigd: 24-01-2020 18:25
Nevel, Bewolking  
Nevel, Bewolking  
   Wind: ZZW 11.1 km/h
Wind: ZZW 11.1 km/h
Temperatuur: 3°C
Voelt als: 0°C
Dauwpunt: 2°C
Vochtigheid: 93%
Barometer: 1022 hPa
Bewolking: Overcast
Zicht: 4 km
Bewolking: Bewolking 400 ft
EHFS 241725Z AUTO 21006KT 3500 BR OVC004/// 03/02 Q1022

Script ontwikkeld door  Saratoga-weather.org Aangepast voor de template door  Weerstation Leuven

Apparatuur in gebruik:

Weerstation
Davis VP2

Weerprogramma
WeatherLink

Weercomputer
Sponsor

Webleverancier
My provider

Davis VP2

WeatherLink

Sponsor

My provider